createdAt,value
2022-08-17T00:00:34.312Z,21.47
2022-08-17T00:05:41.143Z,21.45
2022-08-17T00:10:47.617Z,21.46
2022-08-17T00:15:49.580Z,21.44
2022-08-17T00:20:51.667Z,21.38
2022-08-17T00:25:53.855Z,21.42
2022-08-17T00:35:59.158Z,21.40
2022-08-17T00:41:08.269Z,21.41
2022-08-17T00:46:24.101Z,21.37
2022-08-17T00:51:50.665Z,21.34
2022-08-17T00:56:57.767Z,21.40
2022-08-17T01:02:00.665Z,21.43
2022-08-17T01:07:04.525Z,21.37
2022-08-17T01:12:09.246Z,21.37
2022-08-17T01:17:11.407Z,21.33
2022-08-17T01:22:12.950Z,21.24
2022-08-17T01:27:16.492Z,21.23
2022-08-17T01:32:20.540Z,21.18
2022-08-17T01:37:30.689Z,21.19
2022-08-17T01:42:41.995Z,21.20
2022-08-17T01:47:43.865Z,21.21
2022-08-17T01:52:52.247Z,21.24
2022-08-17T01:57:53.987Z,21.25
2022-08-17T02:02:55.741Z,21.24
2022-08-17T02:08:00.522Z,21.27
2022-08-17T02:13:04.333Z,21.21
2022-08-17T02:18:07.714Z,21.19
2022-08-17T02:23:12.106Z,21.22
2022-08-17T02:28:13.728Z,20.77
2022-08-17T02:33:15.523Z,20.45
2022-08-17T02:38:17.528Z,20.31
2022-08-17T02:43:19.251Z,20.50
2022-08-17T02:48:30.450Z,20.21
2022-08-17T02:53:35.659Z,20.30
2022-08-17T02:58:38.126Z,20.27
2022-08-17T03:03:40.379Z,20.60
2022-08-17T03:08:42.006Z,20.23
2022-08-17T03:13:43.639Z,20.08
2022-08-17T03:18:45.317Z,20.09
2022-08-17T03:23:47.073Z,20.56
2022-08-17T03:28:56.165Z,20.75
2022-08-17T03:33:58.024Z,20.78
2022-08-17T03:39:00.603Z,20.47
2022-08-17T03:44:02.536Z,20.04
2022-08-17T03:49:24.765Z,20.31
2022-08-17T03:54:44.997Z,20.68
2022-08-17T03:59:47.613Z,20.69
2022-08-17T04:04:52.895Z,20.54
2022-08-17T04:09:54.506Z,21.00
2022-08-17T04:14:56.758Z,20.62
2022-08-17T04:19:58.448Z,20.53
2022-08-17T04:25:01.761Z,20.41
2022-08-17T04:30:07.061Z,20.30
2022-08-17T04:35:09.286Z,21.15
2022-08-17T04:40:30.426Z,21.25
2022-08-17T04:45:32.596Z,20.80
2022-08-17T04:50:36.929Z,20.47
2022-08-17T04:55:42.403Z,20.44
2022-08-17T05:01:10.948Z,20.48
2022-08-17T05:06:12.642Z,20.52
2022-08-17T05:11:14.885Z,20.69
2022-08-17T05:16:18.088Z,20.47
2022-08-17T05:21:23.150Z,20.62
2022-08-17T05:26:31.914Z,20.49
2022-08-17T05:31:38.479Z,20.41
2022-08-17T05:36:42.950Z,20.44
2022-08-17T05:41:47.882Z,20.70
2022-08-17T05:47:02.939Z,20.78
2022-08-17T05:52:33.699Z,20.96
2022-08-17T05:57:39.484Z,20.56
2022-08-17T06:02:54.781Z,20.58
2022-08-17T06:08:12.215Z,20.27
2022-08-17T06:13:42.548Z,20.14
2022-08-17T06:18:59.568Z,20.06
2022-08-17T06:24:21.747Z,20.04
2022-08-17T06:29:49.028Z,19.96
2022-08-17T06:34:52.202Z,19.93
2022-08-17T06:40:22.162Z,19.81
2022-08-17T06:45:31.137Z,19.65
2022-08-17T06:50:53.569Z,19.73
2022-08-17T06:56:09.959Z,19.77
2022-08-17T07:01:20.792Z,19.74
2022-08-17T07:06:27.816Z,19.68
2022-08-17T07:11:49.032Z,19.72
2022-08-17T07:16:54.992Z,19.73
2022-08-17T07:22:50.591Z,19.82
2022-08-17T07:28:06.870Z,19.72
2022-08-17T07:33:13.604Z,19.76
2022-08-17T07:38:28.096Z,19.69
2022-08-17T07:43:52.442Z,19.75
2022-08-17T07:48:57.101Z,19.81
2022-08-17T07:54:13.990Z,19.67
2022-08-17T07:59:23.675Z,19.55
2022-08-17T08:10:27.939Z,19.50
2022-08-17T08:15:37.361Z,19.35
2022-08-17T08:20:57.796Z,19.47
2022-08-17T08:26:18.382Z,19.25
2022-08-17T08:31:42.511Z,19.34
2022-08-17T08:37:12.856Z,19.34
2022-08-17T08:42:48.986Z,19.10
2022-08-17T08:47:53.919Z,19.00
2022-08-17T08:53:11.619Z,18.96
2022-08-17T08:58:31.789Z,18.91
2022-08-17T09:03:53.203Z,19.21
2022-08-17T09:09:04.652Z,19.27
2022-08-17T09:14:21.811Z,19.26
2022-08-17T09:19:44.856Z,19.49
2022-08-17T09:24:57.192Z,19.53
2022-08-17T09:30:02.576Z,19.55
2022-08-17T09:35:15.397Z,19.49
2022-08-17T09:40:32.644Z,19.61
2022-08-17T09:45:50.759Z,19.70
2022-08-17T09:51:07.020Z,19.84
2022-08-17T09:56:24.196Z,20.00
2022-08-17T10:01:52.577Z,19.92
2022-08-17T10:07:43.032Z,19.83
2022-08-17T10:12:59.470Z,19.78
2022-08-17T10:18:23.867Z,19.87
2022-08-17T10:23:52.508Z,20.06
2022-08-17T10:29:00.536Z,20.13
2022-08-17T10:34:41.388Z,19.99
2022-08-17T10:40:09.937Z,20.00
2022-08-17T10:45:20.113Z,20.06
2022-08-17T10:50:49.604Z,20.14
2022-08-17T10:56:19.480Z,20.21
2022-08-17T11:01:37.921Z,20.26
2022-08-17T11:06:41.961Z,20.27
2022-08-17T11:11:56.487Z,20.29
2022-08-17T11:17:49.743Z,20.32
2022-08-17T11:23:10.140Z,20.37
2022-08-17T11:28:23.616Z,20.29
2022-08-17T11:33:34.236Z,20.23
2022-08-17T11:38:57.922Z,20.36
2022-08-17T11:44:21.946Z,20.14
2022-08-17T11:50:08.059Z,20.12
2022-08-17T11:55:36.309Z,20.09
2022-08-17T12:00:40.061Z,19.97
2022-08-17T12:05:43.392Z,19.88
2022-08-17T12:11:03.474Z,19.74
2022-08-17T12:16:05.455Z,19.83
2022-08-17T12:21:13.649Z,19.82
2022-08-17T12:26:19.906Z,19.68
2022-08-17T12:31:45.945Z,19.56
2022-08-17T12:36:51.197Z,19.65
2022-08-17T12:42:01.533Z,19.53
2022-08-17T12:47:19.352Z,19.56
2022-08-17T12:52:25.319Z,19.47
2022-08-17T12:57:33.226Z,19.46
2022-08-17T13:02:42.904Z,19.45
2022-08-17T13:07:46.642Z,19.58
2022-08-17T13:12:51.043Z,19.58
2022-08-17T13:17:59.340Z,19.62
2022-08-17T13:23:11.579Z,19.67
2022-08-17T13:28:35.800Z,19.77
2022-08-17T13:33:44.793Z,19.76
2022-08-17T13:38:49.780Z,19.78
2022-08-17T13:43:51.347Z,19.68
2022-08-17T13:49:09.986Z,19.47
2022-08-17T13:54:37.753Z,19.63
2022-08-17T13:59:54.707Z,19.61
2022-08-17T14:04:58.408Z,19.60
2022-08-17T14:10:12.584Z,19.54
2022-08-17T14:15:16.316Z,19.72
2022-08-17T14:20:21.231Z,19.60
2022-08-17T14:25:27.044Z,19.62
2022-08-17T14:48:07.594Z,19.73
2022-08-17T14:53:13.707Z,19.68
2022-08-17T14:58:42.563Z,19.81
2022-08-17T15:03:44.314Z,19.70
2022-08-17T15:08:46.182Z,19.76
2022-08-17T15:13:52.462Z,19.80
2022-08-17T15:18:55.032Z,19.86
2022-08-17T15:23:57.308Z,19.92
2022-08-17T15:28:58.887Z,19.99
2022-08-17T15:40:47.700Z,19.96
2022-08-17T15:46:17.524Z,19.99
2022-08-17T15:51:28.577Z,20.00
2022-08-17T15:56:31.679Z,20.09
2022-08-17T16:03:01.055Z,20.07
2022-08-17T16:06:55.741Z,20.04
2022-08-17T16:11:57.564Z,20.11
2022-08-17T16:16:59.417Z,20.16
2022-08-17T16:22:01.822Z,20.09
2022-08-17T16:27:04.182Z,20.13
2022-08-17T16:32:21.824Z,20.22
2022-08-17T16:43:00.228Z,20.33
2022-08-17T16:48:02.493Z,20.36
2022-08-17T16:53:17.136Z,20.30
2022-08-17T16:58:19.149Z,20.37
2022-08-17T17:03:24.931Z,20.43
2022-08-17T17:08:31.419Z,20.35
2022-08-17T17:13:43.850Z,20.27
2022-08-17T17:19:10.585Z,20.28
2022-08-17T17:24:36.875Z,20.29
2022-08-17T17:29:50.390Z,20.21
2022-08-17T17:35:00.977Z,20.15
2022-08-17T17:40:13.531Z,20.16
2022-08-17T17:45:31.984Z,20.17
2022-08-17T17:50:37.939Z,20.13
2022-08-17T17:56:01.667Z,20.16
2022-08-17T18:01:23.967Z,20.15
2022-08-17T18:06:36.278Z,20.06
2022-08-17T18:11:59.107Z,19.98
2022-08-17T18:17:02.207Z,19.92
2022-08-17T18:22:24.435Z,19.95
2022-08-17T18:27:40.227Z,19.96
2022-08-17T18:32:46.510Z,20.00
2022-08-17T18:37:54.184Z,20.01
2022-08-17T18:43:03.995Z,20.04
2022-08-17T18:48:17.907Z,20.01
2022-08-17T18:53:38.714Z,19.96
2022-08-17T18:58:40.549Z,19.92
2022-08-17T19:03:43.380Z,19.90
2022-08-17T19:08:45.044Z,19.87
2022-08-17T19:13:54.688Z,19.83
2022-08-17T19:19:02.917Z,19.82
2022-08-17T19:24:21.948Z,19.82
2022-08-17T19:29:53.793Z,19.74
2022-08-17T19:34:56.853Z,19.74
2022-08-17T19:40:51.759Z,19.73
2022-08-17T19:46:07.942Z,19.65
2022-08-17T19:51:18.213Z,19.64
2022-08-17T19:56:35.133Z,19.66
2022-08-17T20:01:49.236Z,19.58
2022-08-17T20:06:51.989Z,19.58
2022-08-17T20:12:05.386Z,19.56
2022-08-17T20:17:07.236Z,19.52
2022-08-17T20:22:21.190Z,19.51
2022-08-17T20:27:34.465Z,19.45
2022-08-17T20:32:48.311Z,19.41
2022-08-17T20:37:58.761Z,19.38
2022-08-17T20:43:35.578Z,19.44
2022-08-17T20:48:42.710Z,19.47
2022-08-17T20:53:47.184Z,19.44
2022-08-17T20:58:48.900Z,19.40
2022-08-17T21:03:51.835Z,19.32
2022-08-17T21:09:18.035Z,19.20
2022-08-17T21:14:32.701Z,19.17
2022-08-17T21:20:00.531Z,19.15
2022-08-17T21:25:12.113Z,19.13
2022-08-17T21:30:23.414Z,19.14
2022-08-17T21:35:30.064Z,19.14
2022-08-17T21:40:33.807Z,19.10
2022-08-17T21:45:40.311Z,19.12
2022-08-17T21:50:46.158Z,19.05
2022-08-17T21:55:49.087Z,19.03
2022-08-17T22:01:20.611Z,19.03
2022-08-17T22:06:43.193Z,19.06
2022-08-17T22:12:21.981Z,19.10
2022-08-17T22:17:28.191Z,19.13
2022-08-17T22:22:35.014Z,19.11
2022-08-17T22:28:01.272Z,19.09
2022-08-17T22:33:31.506Z,19.11
2022-08-17T22:38:33.203Z,19.08
2022-08-17T22:43:38.515Z,19.09
2022-08-17T22:48:49.251Z,19.07
2022-08-17T22:54:21.951Z,19.08
2022-08-17T22:59:54.429Z,19.12
2022-08-17T23:05:10.736Z,19.17
2022-08-17T23:10:13.751Z,19.11
2022-08-17T23:15:19.174Z,19.06
2022-08-17T23:20:20.894Z,19.09
2022-08-17T23:25:28.220Z,19.11
2022-08-17T23:30:33.665Z,19.06
2022-08-17T23:35:39.011Z,19.05
2022-08-17T23:40:42.534Z,19.02
2022-08-17T23:45:44.123Z,19.02
2022-08-17T23:50:45.772Z,19.05
2022-08-17T23:55:47.647Z,19.07
